TimePST,TemperatureF,Dew PointF,Humidity,Sea Level PressureIn,VisibilityMPH,Wind Direction,Wind SpeedMPH,Gust SpeedMPH,PrecipitationIn,Events,Conditions,WindDirDegrees,DateUTC
12:53 AM,45.0,41.0,86,30.26,10.0,Calm,Calm,-,N/A,,Overcast,0,2013-02-28 08:53:00
1:53 AM,44.1,41.0,89,30.25,10.0,NW,3.5,-,N/A,,Overcast,320,2013-02-28 09:53:00
2:53 AM,44.1,41.0,89,30.25,10.0,Calm,Calm,-,N/A,,Overcast,0,2013-02-28 10:53:00
4:53 AM,43.0,41.0,93,30.25,10.0,Calm,Calm,-,0.01,Rain,Light Rain,0,2013-02-28 12:53:00
6:46 AM,42.8,41.0,93,30.27,8.0,Calm,Calm,-,0.03,Rain,Light Rain,0,2013-02-28 14:46:00
6:53 AM,43.0,42.1,97,30.28,9.0,Calm,Calm,-,0.03,,Overcast,0,2013-02-28 14:53:00
7:12 AM,42.8,42.8,100,30.27,4.0,Calm,Calm,-,0.01,Rain,Light Rain,0,2013-02-28 15:12:00
7:36 AM,44.6,42.8,93,30.28,6.0,Calm,Calm,-,0.01,Rain,Light Rain,0,2013-02-28 15:36:00
7:43 AM,44.6,42.8,93,30.28,6.0,Calm,Calm,-,0.01,Rain,Light Rain,0,2013-02-28 15:43:00
7:53 AM,44.1,42.1,93,30.30,5.0,Calm,Calm,-,0.01,,Overcast,0,2013-02-28 15:53:00
8:05 AM,44.6,42.8,93,30.29,2.5,Calm,Calm,-,0.01,Rain,Light Rain,0,2013-02-28 16:05:00
8:21 AM,44.6,42.8,93,30.29,3.0,Calm,Calm,-,0.03,Rain,Light Rain,0,2013-02-28 16:21:00
8:53 AM,44.1,42.1,93,30.30,7.0,Calm,Calm,-,0.04,Rain,Light Rain,0,2013-02-28 16:53:00
9:53 AM,46.0,43.0,89,30.31,8.0,Calm,Calm,-,0.04,Rain,Light Rain,0,2013-02-28 17:53:00
10:25 AM,46.4,44.6,93,30.31,10.0,Calm,Calm,-,0.00,,Overcast,0,2013-02-28 18:25:00
10:51 AM,48.2,44.6,87,30.31,10.0,Calm,Calm,-,0.00,,Overcast,0,2013-02-28 18:51:00
10:53 AM,48.0,44.1,86,30.32,10.0,Calm,Calm,-,0.00,,Overcast,0,2013-02-28 18:53:00
11:23 AM,48.2,44.6,87,30.31,10.0,Calm,Calm,-,N/A,,Overcast,0,2013-02-28 19:23:00
11:53 AM,50.0,45.0,83,30.32,10.0,Calm,Calm,-,N/A,,Overcast,0,2013-02-28 19:53:00
12:04 PM,50.0,44.6,82,30.31,10.0,Calm,Calm,-,N/A,,Overcast,0,2013-02-28 20:04:00
12:22 PM,50.0,44.6,82,30.31,10.0,Calm,Calm,-,N/A,,Overcast,0,2013-02-28 20:22:00
12:53 PM,52.0,45.0,77,30.30,10.0,Calm,Calm,-,N/A,,Overcast,0,2013-02-28 20:53:00
1:53 PM,53.1,45.0,74,30.29,10.0,Calm,Calm,-,N/A,,Overcast,0,2013-02-28 21:53:00
2:53 PM,54.0,45.0,72,30.30,10.0,Calm,Calm,-,N/A,,Overcast,0,2013-02-28 22:53:00
3:53 PM,54.0,46.9,77,30.31,10.0,NW,5.8,-,0.00,,Overcast,310,2013-02-28 23:53:00
4:53 PM,54.0,48.0,80,30.32,10.0,NW,4.6,-,0.00,,Overcast,310,2013-03-01 00:53:00
5:53 PM,53.1,46.9,80,30.34,10.0,Calm,Calm,-,N/A,,Mostly Cloudy,0,2013-03-01 01:53:00
6:53 PM,50.0,46.9,89,30.34,10.0,Calm,Calm,-,N/A,,Scattered Clouds,0,2013-03-01 02:53:00
7:53 PM,46.9,45.0,93,30.37,10.0,Calm,Calm,-,N/A,,Scattered Clouds,0,2013-03-01 03:53:00
8:53 PM,45.0,43.0,93,30.38,10.0,South,3.5,-,N/A,,Mostly Cloudy,170,2013-03-01 04:53:00
9:53 PM,44.1,42.1,93,30.39,10.0,SSE,5.8,-,N/A,,Partly Cloudy,160,2013-03-01 05:53:00
10:23 PM,44.6,42.8,93,30.39,10.0,Variable,6.9,-,N/A,,Mostly Cloudy,0,2013-03-01 06:23:00
10:53 PM,45.0,43.0,93,30.40,10.0,SE,6.9,-,N/A,,Mostly Cloudy,130,2013-03-01 06:53:00
11:05 PM,44.6,42.8,93,30.40,10.0,SSE,4.6,-,N/A,,Scattered Clouds,150,2013-03-01 07:05:00
11:53 PM,46.9,43.0,86,30.41,10.0,SSE,5.8,-,N/A,,Scattered Clouds,160,2013-03-01 07:53:00